createdAt,value
2018-06-13T00:01:59.908Z,10.70
2018-06-13T00:04:30.619Z,10.70
2018-06-13T00:07:01.338Z,10.70
2018-06-13T00:09:32.098Z,10.70
2018-06-13T00:12:02.650Z,10.70
2018-06-13T00:14:33.065Z,10.70
2018-06-13T00:17:03.518Z,10.60
2018-06-13T00:19:34.136Z,10.60
2018-06-13T00:22:04.327Z,10.60
2018-06-13T00:24:34.882Z,10.60
2018-06-13T00:27:05.600Z,10.60
2018-06-13T00:29:35.795Z,10.50
2018-06-13T00:32:06.458Z,10.50
2018-06-13T00:34:36.758Z,10.50
2018-06-13T00:37:08.387Z,10.50
2018-06-13T00:39:38.962Z,10.50
2018-06-13T00:42:09.288Z,10.50
2018-06-13T00:44:39.418Z,10.40
2018-06-13T00:47:09.696Z,10.40
2018-06-13T00:49:40.135Z,10.40
2018-06-13T00:52:10.243Z,10.40
2018-06-13T00:54:40.807Z,10.40
2018-06-13T00:57:11.147Z,10.40
2018-06-13T00:59:41.752Z,10.40
2018-06-13T01:02:12.412Z,10.40
2018-06-13T01:04:42.647Z,10.40
2018-06-13T01:07:12.803Z,10.40
2018-06-13T01:09:43.516Z,10.40
2018-06-13T01:12:13.703Z,10.40
2018-06-13T01:14:44.071Z,10.40
2018-06-13T01:17:14.875Z,10.40
2018-06-13T01:19:44.952Z,10.40
2018-06-13T01:22:15.267Z,10.40
2018-06-13T01:24:46.197Z,10.40
2018-06-13T01:27:16.515Z,10.40
2018-06-13T01:29:46.691Z,10.40
2018-06-13T01:32:16.813Z,10.30
2018-06-13T01:34:47.512Z,10.30
2018-06-13T01:37:17.983Z,10.30
2018-06-13T01:39:48.708Z,10.30
2018-06-13T01:42:19.031Z,10.30
2018-06-13T01:44:49.192Z,10.30
2018-06-13T01:47:19.317Z,10.30
2018-06-13T01:49:50.069Z,10.30
2018-06-13T01:52:20.685Z,10.30
2018-06-13T01:54:50.840Z,10.30
2018-06-13T01:57:20.980Z,10.30
2018-06-13T01:59:51.327Z,10.30
2018-06-13T02:02:21.402Z,10.30
2018-06-13T02:04:52.202Z,10.30
2018-06-13T02:07:22.392Z,10.30
2018-06-13T02:09:53.523Z,10.30
2018-06-13T02:12:24.430Z,10.30
2018-06-13T02:14:54.908Z,10.30
2018-06-13T02:17:25.517Z,10.30
2018-06-13T02:19:56.352Z,10.30
2018-06-13T02:22:27.012Z,10.30
2018-06-13T02:24:58.080Z,10.20
2018-06-13T02:27:28.301Z,10.20
2018-06-13T02:29:58.573Z,10.20
2018-06-13T02:32:28.954Z,10.20
2018-06-13T02:34:59.404Z,10.20
2018-06-13T02:37:29.944Z,10.20
2018-06-13T02:40:00.473Z,10.20
2018-06-13T02:42:31.366Z,10.10
2018-06-13T02:45:02.025Z,10.10
2018-06-13T02:47:33.704Z,10.10
2018-06-13T02:50:04.937Z,10.00
2018-06-13T02:52:36.454Z,9.90
2018-06-13T02:55:07.432Z,9.90
2018-06-13T02:57:37.640Z,9.90
2018-06-13T03:00:08.390Z,9.90
2018-06-13T03:02:38.724Z,9.90
2018-06-13T03:05:08.756Z,9.80
2018-06-13T03:07:39.265Z,9.80
2018-06-13T03:10:09.759Z,9.80
2018-06-13T03:12:40.142Z,9.80
2018-06-13T03:15:10.905Z,9.80
2018-06-13T03:17:41.131Z,9.80
2018-06-13T03:20:11.963Z,9.80
2018-06-13T03:22:42.803Z,9.80
2018-06-13T03:25:12.914Z,9.80
2018-06-13T03:27:43.684Z,9.80
2018-06-13T03:30:14.149Z,9.80
2018-06-13T03:32:44.340Z,9.80
2018-06-13T03:35:15.173Z,9.80
2018-06-13T03:37:46.280Z,9.70
2018-06-13T03:40:17.657Z,9.80
2018-06-13T03:42:48.134Z,9.80
2018-06-13T03:45:18.857Z,9.80
2018-06-13T03:47:49.794Z,9.90
2018-06-13T03:50:20.835Z,9.90
2018-06-13T03:55:28.433Z,9.90
2018-06-13T03:58:00.862Z,9.90
2018-06-13T04:00:31.909Z,9.90
2018-06-13T04:03:02.787Z,9.90
2018-06-13T04:05:34.693Z,9.90
2018-06-13T04:08:06.141Z,9.90
2018-06-13T04:10:37.184Z,10.00
2018-06-13T04:13:08.653Z,10.00
2018-06-13T04:15:39.500Z,10.00
2018-06-13T04:18:10.588Z,10.00
2018-06-13T04:20:41.152Z,10.00
2018-06-13T04:23:11.686Z,10.00
2018-06-13T04:25:42.562Z,10.00
2018-06-13T04:28:13.676Z,10.00
2018-06-13T04:30:46.836Z,10.00
2018-06-13T04:33:21.529Z,10.00
2018-06-13T04:35:52.897Z,10.00
2018-06-13T04:38:23.468Z,10.00
2018-06-13T04:40:53.879Z,10.10
2018-06-13T04:43:24.319Z,10.10
2018-06-13T04:45:54.936Z,10.10
2018-06-13T04:48:32.619Z,10.10
2018-06-13T04:51:18.539Z,10.10
2018-06-13T04:53:49.902Z,10.10
2018-06-13T04:56:25.656Z,10.10
2018-06-13T04:58:56.646Z,10.10
2018-06-13T05:01:27.714Z,10.10
2018-06-13T05:03:58.802Z,10.20
2018-06-13T05:06:29.466Z,10.20
2018-06-13T05:09:00.132Z,10.30
2018-06-13T05:11:31.015Z,10.30
2018-06-13T05:14:01.927Z,10.30
2018-06-13T05:16:32.856Z,10.20
2018-06-13T05:19:04.519Z,10.20
2018-06-13T05:34:39.034Z,10.20
2018-06-13T05:37:09.822Z,10.20
2018-06-13T05:39:40.388Z,10.60
2018-06-13T05:42:10.946Z,10.50
2018-06-13T05:44:41.721Z,10.50
2018-06-13T05:47:12.058Z,10.40
2018-06-13T05:49:42.751Z,10.40
2018-06-13T05:52:13.085Z,10.40
2018-06-13T05:54:44.052Z,10.40
2018-06-13T05:57:14.620Z,10.30
2018-06-13T05:59:47.141Z,10.40
2018-06-13T06:02:18.252Z,10.40
2018-06-13T06:04:48.979Z,10.30
2018-06-13T06:07:19.620Z,10.30
2018-06-13T06:09:50.710Z,10.20
2018-06-13T06:12:21.550Z,10.20
2018-06-13T06:14:52.228Z,10.20
2018-06-13T06:17:22.596Z,10.30
2018-06-13T06:19:53.144Z,10.30
2018-06-13T06:22:23.705Z,10.20
2018-06-13T06:24:53.903Z,10.10
2018-06-13T06:27:24.458Z,10.10
2018-06-13T06:29:54.712Z,10.10
2018-06-13T06:32:25.430Z,10.10
2018-06-13T06:34:56.043Z,10.10
2018-06-13T06:37:27.234Z,10.10
2018-06-13T06:39:57.858Z,10.10
2018-06-13T06:42:28.451Z,10.20
2018-06-13T06:44:58.802Z,10.20
2018-06-13T06:47:29.527Z,10.20
2018-06-13T06:50:00.094Z,10.30
2018-06-13T06:52:30.893Z,10.30
2018-06-13T06:55:01.715Z,10.40
2018-06-13T06:57:32.502Z,10.40
2018-06-13T07:00:03.432Z,10.50
2018-06-13T07:02:34.123Z,10.50
2018-06-13T07:05:04.837Z,10.50
2018-06-13T07:07:36.061Z,10.60
2018-06-13T07:10:06.655Z,10.80
2018-06-13T07:12:36.939Z,10.90
2018-06-13T07:15:07.799Z,11.00
2018-06-13T07:17:38.277Z,11.10
2018-06-13T07:20:08.839Z,11.30
2018-06-13T07:22:39.131Z,11.40
2018-06-13T07:25:09.572Z,11.60
2018-06-13T07:27:40.132Z,11.80
2018-06-13T07:30:10.686Z,12.00
2018-06-13T07:32:41.059Z,12.20
2018-06-13T07:35:11.602Z,12.30
2018-06-13T07:37:43.295Z,12.50
2018-06-13T07:40:13.512Z,12.70
2018-06-13T07:42:44.109Z,12.90
2018-06-13T07:45:14.503Z,12.80
2018-06-13T07:47:44.938Z,12.70
2018-06-13T07:50:15.295Z,12.60
2018-06-13T07:52:45.972Z,12.60
2018-06-13T07:55:16.653Z,12.60
2018-06-13T07:57:47.256Z,12.90
2018-06-13T08:00:17.714Z,13.20
2018-06-13T08:02:48.047Z,13.40
2018-06-13T08:05:18.419Z,13.50
2018-06-13T08:07:48.978Z,13.90
2018-06-13T08:10:19.739Z,14.30
2018-06-13T08:12:50.194Z,14.80
2018-06-13T08:15:20.620Z,14.90
2018-06-13T08:17:51.014Z,15.20
2018-06-13T08:20:21.829Z,15.50
2018-06-13T08:22:52.039Z,15.20
2018-06-13T08:25:22.374Z,14.80
2018-06-13T08:27:52.666Z,14.00
2018-06-13T08:30:22.888Z,13.40
2018-06-13T08:32:53.130Z,12.90
2018-06-13T08:35:23.396Z,12.60
2018-06-13T08:37:53.634Z,12.10
2018-06-13T08:40:24.076Z,11.80
2018-06-13T08:42:54.443Z,11.40
2018-06-13T08:45:24.831Z,11.10
2018-06-13T08:47:55.479Z,10.90
2018-06-13T08:50:25.820Z,10.70
2018-06-13T08:52:56.171Z,10.50
2018-06-13T08:55:26.902Z,10.40
2018-06-13T08:57:57.659Z,10.30
2018-06-13T09:00:28.160Z,10.20
2018-06-13T09:02:58.372Z,10.30
2018-06-13T09:05:28.600Z,10.50
2018-06-13T09:08:01.230Z,10.70
2018-06-13T09:10:31.736Z,10.90
2018-06-13T09:13:02.199Z,11.20
2018-06-13T09:15:33.055Z,11.30
2018-06-13T09:18:03.498Z,11.50
2018-06-13T09:20:34.126Z,11.60
2018-06-13T09:23:04.818Z,11.60
2018-06-13T09:25:35.436Z,11.60
2018-06-13T09:28:06.180Z,11.50
2018-06-13T09:30:36.684Z,11.60
2018-06-13T09:33:08.724Z,11.60
2018-06-13T09:35:39.257Z,11.60
2018-06-13T09:38:09.953Z,11.70
2018-06-13T09:40:40.305Z,11.80
2018-06-13T09:43:10.881Z,12.00
2018-06-13T09:45:41.411Z,12.10
2018-06-13T09:48:11.986Z,12.20
2018-06-13T09:50:42.387Z,12.40
2018-06-13T09:53:12.949Z,12.70
2018-06-13T09:55:43.266Z,12.90
2018-06-13T09:58:13.652Z,13.20
2018-06-13T10:00:49.147Z,13.20
2018-06-13T10:03:19.941Z,12.80
2018-06-13T10:05:50.600Z,12.40
2018-06-13T10:08:21.340Z,12.10
2018-06-13T10:10:51.923Z,11.70
2018-06-13T10:13:22.852Z,11.50
2018-06-13T10:15:53.507Z,11.40
2018-06-13T10:18:24.278Z,11.20
2018-06-13T10:20:54.627Z,11.30
2018-06-13T10:23:25.043Z,11.50
2018-06-13T10:25:55.553Z,11.70
2018-06-13T10:28:26.095Z,12.00
2018-06-13T10:30:56.464Z,12.10
2018-06-13T10:33:26.663Z,12.30
2018-06-13T10:35:56.675Z,12.50
2018-06-13T10:38:28.125Z,12.60
2018-06-13T10:40:58.285Z,12.60
2018-06-13T10:43:28.744Z,12.50
2018-06-13T10:45:59.195Z,12.50
2018-06-13T10:48:29.682Z,12.40
2018-06-13T10:51:00.381Z,12.40
2018-06-13T10:53:30.618Z,12.30
2018-06-13T10:56:01.267Z,12.10
2018-06-13T10:58:31.669Z,12.00
2018-06-13T11:01:02.376Z,12.10
2018-06-13T11:03:32.758Z,12.30
2018-06-13T11:06:03.308Z,12.40
2018-06-13T11:08:33.581Z,12.70
2018-06-13T11:11:04.119Z,12.80
2018-06-13T11:13:34.192Z,13.00
2018-06-13T11:16:04.722Z,13.00
2018-06-13T11:18:35.492Z,12.90
2018-06-13T11:21:06.164Z,12.70
2018-06-13T11:23:36.551Z,12.70
2018-06-13T11:26:07.283Z,12.70
2018-06-13T11:28:37.742Z,12.80
2018-06-13T11:31:08.137Z,12.90
2018-06-13T11:33:38.887Z,12.80
2018-06-13T11:36:09.424Z,12.60
2018-06-13T11:38:39.936Z,12.30
2018-06-13T11:41:10.299Z,12.10
2018-06-13T11:43:40.685Z,11.80
2018-06-13T11:46:11.314Z,11.50
2018-06-13T11:48:41.974Z,11.30
2018-06-13T11:51:12.366Z,11.20
2018-06-13T11:53:42.782Z,11.10
2018-06-13T11:56:13.250Z,11.00
2018-06-13T11:58:43.829Z,11.00
2018-06-13T12:01:14.870Z,11.10
2018-06-13T12:03:45.238Z,11.30
2018-06-13T12:06:15.540Z,11.40
2018-06-13T12:08:46.383Z,11.70
2018-06-13T12:11:16.745Z,11.90
2018-06-13T12:13:47.362Z,12.30
2018-06-13T12:16:18.586Z,12.50
2018-06-13T12:18:48.882Z,12.70
2018-06-13T12:21:19.510Z,13.00
2018-06-13T12:23:49.933Z,13.20
2018-06-13T12:26:20.736Z,13.30
2018-06-13T12:28:51.353Z,13.60
2018-06-13T12:31:21.687Z,13.70
2018-06-13T12:33:52.102Z,13.80
2018-06-13T12:43:03.147Z,14.60
2018-06-13T16:08:09.400Z,13.00
2018-06-13T16:10:39.404Z,12.80
2018-06-13T16:13:11.373Z,12.90
2018-06-13T16:15:41.537Z,12.80
2018-06-13T16:18:12.143Z,12.80
2018-06-13T16:20:42.256Z,12.70
2018-06-13T16:23:12.330Z,12.70
2018-06-13T16:25:42.913Z,12.70
2018-06-13T16:28:13.062Z,12.60
2018-06-13T16:30:46.931Z,12.70
2018-06-13T16:33:17.242Z,12.80
2018-06-13T16:35:47.368Z,12.90
2018-06-13T16:38:17.979Z,13.00
2018-06-13T16:40:49.364Z,12.90
2018-06-13T16:43:21.011Z,12.90
2018-06-13T16:45:51.081Z,12.90
2018-06-13T16:48:21.538Z,12.90
2018-06-13T16:51:08.688Z,12.80
2018-06-13T16:54:10.742Z,12.80
2018-06-13T16:56:41.530Z,12.70
2018-06-13T16:59:12.416Z,12.50
2018-06-13T17:01:44.480Z,12.30
2018-06-13T17:04:14.920Z,12.20
2018-06-13T17:06:46.739Z,12.00
2018-06-13T17:09:17.748Z,11.90
2018-06-13T17:11:48.277Z,11.70
2018-06-13T17:14:19.689Z,11.50
2018-06-13T17:20:01.501Z,11.40
2018-06-13T17:22:32.025Z,11.40
2018-06-13T17:25:03.005Z,11.40
2018-06-13T17:27:33.443Z,11.40
2018-06-13T17:30:03.909Z,11.50
2018-06-13T17:32:35.941Z,11.50
2018-06-13T17:35:06.097Z,11.50
2018-06-13T17:37:36.284Z,11.50
2018-06-13T17:40:06.405Z,11.50
2018-06-13T17:42:36.545Z,11.50
2018-06-13T17:45:07.194Z,11.50
2018-06-13T17:47:37.696Z,11.50
2018-06-13T17:50:07.930Z,11.40
2018-06-13T17:52:38.697Z,11.40
2018-06-13T17:55:08.841Z,11.40
2018-06-13T17:57:40.983Z,11.30
2018-06-13T18:00:11.058Z,11.30
2018-06-13T18:02:41.628Z,11.30
2018-06-13T18:05:12.895Z,11.20
2018-06-13T18:07:43.029Z,11.20
2018-06-13T18:10:13.080Z,11.10
2018-06-13T18:12:43.252Z,11.10
2018-06-13T18:15:18.557Z,11.10
2018-06-13T18:17:49.487Z,11.10
2018-06-13T18:20:19.771Z,11.10
2018-06-13T18:25:59.936Z,11.00
2018-06-13T18:28:30.025Z,11.00
2018-06-13T18:31:18.119Z,10.90
2018-06-13T18:33:49.256Z,10.90
2018-06-13T18:36:19.724Z,10.90
2018-06-13T18:38:50.349Z,10.80
2018-06-13T18:41:45.835Z,10.80
2018-06-13T18:47:38.565Z,10.70
2018-06-13T18:50:10.157Z,10.60
2018-06-13T18:56:23.708Z,10.50
2018-06-13T18:58:54.301Z,10.40
2018-06-13T19:01:25.896Z,10.40
2018-06-13T19:03:56.155Z,10.30
2018-06-13T19:06:48.727Z,10.30
2018-06-13T19:09:19.049Z,10.30
2018-06-13T19:14:51.895Z,10.20
2018-06-13T19:17:22.435Z,10.20
2018-06-13T19:19:53.418Z,10.10
2018-06-13T19:22:23.570Z,10.10
2018-06-13T19:28:00.514Z,10.00
2018-06-13T19:30:31.176Z,10.00
2018-06-13T19:36:11.672Z,10.00
2018-06-13T19:38:42.260Z,10.00
2018-06-13T19:41:12.584Z,9.90
2018-06-13T19:43:44.451Z,9.90
2018-06-13T19:46:14.563Z,9.90
2018-06-13T19:48:54.170Z,9.90
2018-06-13T19:58:25.531Z,9.80
2018-06-13T20:00:55.729Z,9.80
2018-06-13T20:03:31.622Z,9.80
2018-06-13T20:06:01.783Z,9.70
2018-06-13T20:08:32.056Z,9.70
2018-06-13T20:11:03.063Z,9.70
2018-06-13T20:13:55.108Z,9.70
2018-06-13T20:16:52.380Z,9.70
2018-06-13T20:19:27.583Z,9.70
2018-06-13T20:21:59.210Z,9.60
2018-06-13T20:24:30.092Z,9.70
2018-06-13T20:27:06.034Z,9.70
2018-06-13T20:30:00.708Z,9.60
2018-06-13T20:35:41.175Z,9.60
2018-06-13T20:38:11.865Z,9.70
2018-06-13T20:40:42.160Z,9.60
2018-06-13T20:43:13.883Z,9.60
2018-06-13T20:45:44.413Z,9.60
2018-06-13T20:48:14.536Z,9.60
2018-06-13T20:50:45.077Z,9.70
2018-06-13T20:53:15.947Z,9.60
2018-06-13T20:55:46.464Z,9.60
2018-06-13T21:01:28.009Z,9.60
2018-06-13T21:03:58.559Z,9.60
2018-06-13T21:06:39.170Z,9.60
2018-06-13T21:09:11.184Z,9.60
2018-06-13T21:11:41.249Z,9.60
2018-06-13T21:14:30.412Z,9.60
2018-06-13T21:20:11.051Z,9.70
2018-06-13T21:22:49.093Z,9.60
2018-06-13T21:25:19.419Z,9.60
2018-06-13T21:27:49.696Z,9.60
2018-06-13T21:30:20.750Z,9.60
2018-06-13T21:33:17.235Z,9.60
2018-06-13T21:35:48.433Z,9.60
2018-06-13T21:39:53.557Z,9.60
2018-06-13T21:42:23.673Z,9.60
2018-06-13T21:45:03.871Z,9.60
2018-06-13T21:47:34.742Z,9.60
2018-06-13T21:50:04.988Z,9.60
2018-06-13T21:52:35.339Z,9.60
2018-06-13T22:05:02.692Z,9.70
2018-06-13T22:07:32.840Z,9.70
2018-06-13T22:10:03.720Z,9.60
2018-06-13T22:12:34.397Z,9.60
2018-06-13T22:15:04.585Z,9.60
2018-06-13T22:17:34.678Z,9.60
2018-06-13T22:20:19.089Z,9.60
2018-06-13T22:32:29.556Z,9.60
2018-06-13T22:35:00.246Z,9.50
2018-06-13T22:37:30.256Z,9.50
2018-06-13T22:43:17.649Z,9.60
2018-06-13T22:45:48.012Z,9.50
2018-06-13T22:48:19.296Z,9.50
2018-06-13T23:03:41.562Z,9.60
2018-06-13T23:06:12.146Z,9.60
2018-06-13T23:08:42.212Z,9.50
2018-06-13T23:14:22.232Z,9.50
2018-06-13T23:16:52.410Z,9.50
2018-06-13T23:19:22.544Z,9.50
2018-06-13T23:21:53.100Z,9.50
2018-06-13T23:24:24.019Z,9.50
2018-06-13T23:26:54.172Z,9.50
2018-06-13T23:29:24.379Z,9.50
2018-06-13T23:35:04.516Z,9.40
2018-06-13T23:37:35.007Z,9.40
2018-06-13T23:40:05.909Z,9.40
2018-06-13T23:42:36.465Z,9.40
2018-06-13T23:45:20.578Z,9.40
2018-06-13T23:47:50.978Z,9.30
2018-06-13T23:50:21.740Z,9.30
2018-06-13T23:52:52.207Z,9.30
